createdAt,value
2022-09-23T00:00:06.686Z,7.03
2022-09-23T00:01:06.607Z,7.06
2022-09-23T00:02:06.718Z,7.04
2022-09-23T00:03:06.560Z,7.00
2022-09-23T00:04:06.577Z,7.04
2022-09-23T00:05:06.590Z,7.04
2022-09-23T00:06:06.544Z,7.07
2022-09-23T00:07:06.535Z,7.04
2022-09-23T00:08:06.542Z,7.03
2022-09-23T00:09:06.650Z,6.91
2022-09-23T00:10:06.526Z,6.99
2022-09-23T00:11:06.567Z,7.00
2022-09-23T00:12:09.063Z,7.04
2022-09-23T00:13:06.499Z,7.00
2022-09-23T00:14:06.499Z,6.89
2022-09-23T00:15:06.481Z,7.00
2022-09-23T00:16:06.484Z,7.04
2022-09-23T00:17:06.577Z,7.03
2022-09-23T00:18:06.468Z,6.93
2022-09-23T00:19:06.467Z,6.91
2022-09-23T00:20:06.479Z,6.89
2022-09-23T00:21:06.474Z,6.97
2022-09-23T00:22:06.457Z,6.88
2022-09-23T00:23:06.442Z,6.88
2022-09-23T00:24:06.567Z,6.91
2022-09-23T00:25:06.472Z,6.92
2022-09-23T00:26:08.163Z,6.89
2022-09-23T00:27:06.416Z,6.89
2022-09-23T00:28:06.406Z,7.00
2022-09-23T00:29:06.400Z,6.75
2022-09-23T00:30:06.386Z,6.79
2022-09-23T00:31:06.476Z,6.81
2022-09-23T00:32:06.971Z,6.79
2022-09-23T00:33:06.364Z,6.73
2022-09-23T00:34:06.367Z,6.82
2022-09-23T00:35:06.352Z,6.83
2022-09-23T00:36:06.356Z,6.74
2022-09-23T00:37:07.190Z,6.75
2022-09-23T00:38:06.355Z,6.68
2022-09-23T00:39:06.469Z,6.70
2022-09-23T00:40:06.402Z,6.75
2022-09-23T00:41:06.323Z,6.74
2022-09-23T00:42:06.316Z,6.63
2022-09-23T00:43:06.321Z,6.64
2022-09-23T00:44:06.604Z,6.65
2022-09-23T00:45:06.286Z,6.61
2022-09-23T00:46:06.402Z,6.64
2022-09-23T00:47:06.272Z,6.78
2022-09-23T00:48:06.305Z,6.78
2022-09-23T00:49:06.589Z,6.68
2022-09-23T00:50:06.270Z,6.65
2022-09-23T00:51:06.251Z,6.68
2022-09-23T00:52:06.245Z,6.60
2022-09-23T00:53:06.259Z,6.63
2022-09-23T00:54:06.438Z,6.64
2022-09-23T00:55:06.270Z,6.67
2022-09-23T00:56:06.221Z,6.53
2022-09-23T00:57:06.219Z,6.49
2022-09-23T00:58:06.204Z,6.57
2022-09-23T00:59:06.206Z,6.52
2022-09-23T01:00:06.366Z,6.53
2022-09-23T01:01:06.271Z,6.46
2022-09-23T01:02:06.207Z,6.47
2022-09-23T01:03:06.171Z,6.49
2022-09-23T01:04:06.179Z,6.53
2022-09-23T01:05:06.166Z,6.49
2022-09-23T01:06:06.586Z,6.57
2022-09-23T01:07:06.172Z,6.46
2022-09-23T01:08:06.146Z,6.45
2022-09-23T01:09:06.287Z,6.43
2022-09-23T01:10:06.141Z,6.46
2022-09-23T01:11:06.133Z,6.47
2022-09-23T01:12:06.141Z,6.47
2022-09-23T01:13:06.112Z,6.45
2022-09-23T01:14:06.119Z,6.49
2022-09-23T01:15:06.097Z,6.40
2022-09-23T01:16:06.577Z,6.40
2022-09-23T01:17:06.174Z,6.28
2022-09-23T01:18:06.361Z,6.15
2022-09-23T01:19:06.081Z,6.13
2022-09-23T01:20:06.066Z,6.03
2022-09-23T01:21:06.060Z,5.95
2022-09-23T01:22:07.164Z,5.82
2022-09-23T01:23:06.043Z,5.87
2022-09-23T01:24:06.171Z,5.80
2022-09-23T01:25:06.062Z,5.77
2022-09-23T01:26:06.024Z,5.84
2022-09-23T01:27:06.020Z,5.76
2022-09-23T01:28:06.015Z,5.72
2022-09-23T01:29:06.009Z,5.75
2022-09-23T01:30:06.010Z,5.77
2022-09-23T01:31:06.088Z,5.65
2022-09-23T01:32:05.983Z,5.77
2022-09-23T01:33:05.976Z,5.67
2022-09-23T01:34:06.020Z,5.66
2022-09-23T01:35:07.088Z,5.80
2022-09-23T01:36:05.967Z,5.76
2022-09-23T01:37:05.957Z,5.72
2022-09-23T01:38:05.945Z,5.70
2022-09-23T01:39:06.000Z,5.77
2022-09-23T01:40:06.862Z,5.72
2022-09-23T01:41:05.965Z,5.79
2022-09-23T01:42:06.368Z,5.77
2022-09-23T01:43:06.055Z,5.75
2022-09-23T01:44:05.913Z,5.79
2022-09-23T01:45:05.974Z,5.67
2022-09-23T01:46:05.907Z,5.67
2022-09-23T01:47:05.881Z,5.70
2022-09-23T01:48:05.981Z,5.67
2022-09-23T01:49:05.978Z,5.79
2022-09-23T01:50:05.861Z,5.73
2022-09-23T01:51:05.859Z,5.66
2022-09-23T01:52:05.855Z,5.77
2022-09-23T01:53:05.852Z,5.77
2022-09-23T01:54:05.863Z,5.66
2022-09-23T01:55:05.837Z,5.69
2022-09-23T01:56:05.824Z,5.73
2022-09-23T01:57:05.833Z,5.75
2022-09-23T01:58:05.808Z,5.75
2022-09-23T01:59:06.256Z,5.72
2022-09-23T02:00:05.790Z,5.55
2022-09-23T02:01:06.005Z,5.70
2022-09-23T02:02:05.876Z,5.61
2022-09-23T02:03:05.780Z,5.73
2022-09-23T02:04:05.921Z,5.73
2022-09-23T02:05:05.768Z,5.67
2022-09-23T02:06:05.763Z,5.76
2022-09-23T02:07:05.758Z,5.72
2022-09-23T02:08:06.326Z,5.67
2022-09-23T02:09:05.742Z,5.65
2022-09-23T02:10:13.320Z,5.75
2022-09-23T02:11:05.726Z,5.66
2022-09-23T02:12:05.730Z,5.73
2022-09-23T02:13:05.737Z,5.70
2022-09-23T02:14:05.723Z,5.73
2022-09-23T02:15:05.688Z,5.79
2022-09-23T02:16:05.688Z,5.72
2022-09-23T02:17:05.682Z,5.77
2022-09-23T02:18:05.675Z,5.76
2022-09-23T02:19:05.718Z,5.76
2022-09-23T02:20:05.680Z,5.79
2022-09-23T02:21:05.664Z,5.91
2022-09-23T02:22:06.065Z,5.91
2022-09-23T02:23:05.635Z,5.79
2022-09-23T02:24:05.648Z,5.90
2022-09-23T02:25:05.622Z,5.95
2022-09-23T02:26:05.652Z,5.94
2022-09-23T02:27:05.622Z,5.90
2022-09-23T02:28:05.608Z,5.95
2022-09-23T02:29:05.938Z,5.95
2022-09-23T02:30:05.590Z,5.95
2022-09-23T02:31:05.590Z,6.00
2022-09-23T02:32:05.640Z,5.98
2022-09-23T02:33:05.578Z,5.90
2022-09-23T02:34:05.590Z,5.94
2022-09-23T02:35:05.568Z,5.82
2022-09-23T02:36:05.561Z,5.94
2022-09-23T02:37:05.547Z,5.95
2022-09-23T02:38:05.542Z,5.97
2022-09-23T02:39:05.540Z,5.93
2022-09-23T02:40:05.588Z,5.98
2022-09-23T02:41:05.545Z,5.88
2022-09-23T02:42:05.524Z,5.85
2022-09-23T02:43:05.518Z,5.80
2022-09-23T02:44:05.506Z,5.73
2022-09-23T02:45:05.541Z,5.79
2022-09-23T02:46:05.539Z,5.65
2022-09-23T02:47:05.513Z,5.72
2022-09-23T02:48:05.475Z,5.69
2022-09-23T02:49:05.463Z,5.54
2022-09-23T02:50:05.467Z,5.72
2022-09-23T02:51:05.492Z,5.66
2022-09-23T02:52:05.474Z,5.72
2022-09-23T02:53:05.446Z,5.69
2022-09-23T02:54:05.498Z,5.67
2022-09-23T02:55:05.440Z,5.62
2022-09-23T02:56:05.426Z,5.57
2022-09-23T02:57:05.437Z,5.52
2022-09-23T02:58:05.415Z,5.57
2022-09-23T02:59:05.449Z,5.57
2022-09-23T03:00:05.407Z,5.52
2022-09-23T03:01:05.455Z,5.55
2022-09-23T03:02:05.589Z,5.54
2022-09-23T03:03:05.434Z,5.54
2022-09-23T03:04:05.368Z,5.55
2022-09-23T03:05:05.377Z,5.57
2022-09-23T03:06:05.361Z,5.51
2022-09-23T03:07:05.346Z,5.58
2022-09-23T03:08:05.373Z,5.50
2022-09-23T03:09:05.580Z,5.47
2022-09-23T03:10:05.327Z,5.54
2022-09-23T03:11:05.338Z,5.52
2022-09-23T03:12:05.318Z,5.59
2022-09-23T03:13:05.315Z,5.58
2022-09-23T03:14:05.749Z,5.58
2022-09-23T03:15:05.293Z,5.62
2022-09-23T03:16:05.395Z,5.66
2022-09-23T03:17:05.325Z,5.70
2022-09-23T03:18:05.583Z,5.65
2022-09-23T03:19:05.274Z,5.58
2022-09-23T03:20:06.061Z,5.65
2022-09-23T03:21:05.252Z,5.65
2022-09-23T03:22:05.252Z,5.62
2022-09-23T03:23:05.244Z,5.65
2022-09-23T03:24:05.311Z,5.59
2022-09-23T03:25:05.251Z,5.57
2022-09-23T03:26:05.231Z,5.52
2022-09-23T03:27:05.211Z,5.41
2022-09-23T03:28:05.212Z,5.33
2022-09-23T03:29:05.198Z,5.36
2022-09-23T03:30:05.251Z,5.40
2022-09-23T03:31:05.762Z,5.36
2022-09-23T03:32:05.233Z,5.40
2022-09-23T03:33:05.215Z,5.48
2022-09-23T03:34:05.167Z,5.37
2022-09-23T03:35:05.193Z,5.36
2022-09-23T03:36:05.156Z,5.36
2022-09-23T03:37:05.196Z,5.39
2022-09-23T03:38:05.149Z,5.39
2022-09-23T03:39:05.273Z,5.34
2022-09-23T03:40:06.421Z,5.40
2022-09-23T03:41:05.124Z,5.39
2022-09-23T03:42:05.114Z,5.36
2022-09-23T03:43:05.146Z,5.43
2022-09-23T03:44:05.105Z,5.43
2022-09-23T03:45:05.101Z,5.44
2022-09-23T03:46:05.868Z,5.47
2022-09-23T03:47:05.079Z,5.36
2022-09-23T03:48:05.073Z,5.34
2022-09-23T03:49:05.190Z,5.32
2022-09-23T03:50:05.067Z,5.27
2022-09-23T03:51:05.241Z,5.22
2022-09-23T03:52:05.054Z,5.22
2022-09-23T03:53:05.121Z,5.27
2022-09-23T03:54:05.036Z,5.22
2022-09-23T03:55:05.042Z,5.25
2022-09-23T03:56:05.026Z,5.29
2022-09-23T03:57:05.120Z,5.27
2022-09-23T03:58:05.024Z,5.27
2022-09-23T03:59:05.046Z,5.27
2022-09-23T04:00:05.009Z,5.24
2022-09-23T04:01:05.178Z,5.12
2022-09-23T04:02:05.118Z,5.04
2022-09-23T04:03:09.505Z,5.03
2022-09-23T04:04:06.545Z,5.14
2022-09-23T04:05:04.993Z,5.14
2022-09-23T04:06:04.961Z,5.09
2022-09-23T04:07:04.952Z,5.11
2022-09-23T04:08:05.400Z,5.03
2022-09-23T04:09:04.951Z,4.96
2022-09-23T04:10:05.056Z,5.04
2022-09-23T04:11:04.927Z,4.94
2022-09-23T04:12:04.922Z,5.07
2022-09-23T04:13:04.937Z,4.97
2022-09-23T04:14:04.919Z,4.93
2022-09-23T04:15:04.899Z,4.96
2022-09-23T04:16:04.968Z,4.94
2022-09-23T04:17:05.333Z,4.96
2022-09-23T04:18:06.030Z,5.00
2022-09-23T04:19:05.195Z,4.91
2022-09-23T04:20:04.872Z,4.96
2022-09-23T04:21:04.894Z,4.83
2022-09-23T04:22:05.335Z,4.94
2022-09-23T04:23:04.851Z,4.93
2022-09-23T04:24:04.843Z,4.88
2022-09-23T04:25:04.904Z,4.86
2022-09-23T04:26:04.838Z,4.93
2022-09-23T04:27:04.819Z,4.94
2022-09-23T04:28:04.838Z,4.89
2022-09-23T04:29:04.808Z,4.89
2022-09-23T04:30:05.051Z,4.94
2022-09-23T04:31:04.837Z,4.88
2022-09-23T04:32:04.801Z,4.85
2022-09-23T04:33:04.941Z,4.85
2022-09-23T04:34:04.804Z,4.85
2022-09-23T04:35:04.791Z,4.86
2022-09-23T04:36:05.043Z,4.86
2022-09-23T04:37:04.786Z,4.86
2022-09-23T04:38:04.771Z,4.78
2022-09-23T04:39:04.740Z,4.85
2022-09-23T04:40:04.841Z,4.78
2022-09-23T04:41:04.731Z,4.74
2022-09-23T04:42:04.729Z,4.89
2022-09-23T04:43:04.760Z,4.72
2022-09-23T04:44:04.715Z,4.75
2022-09-23T04:45:04.719Z,4.74
2022-09-23T04:46:04.948Z,4.74
2022-09-23T04:47:04.778Z,4.74
2022-09-23T04:48:04.705Z,4.67
2022-09-23T04:49:04.705Z,4.64
2022-09-23T04:50:04.669Z,4.67
2022-09-23T04:51:04.672Z,4.74
2022-09-23T04:52:05.121Z,4.64
2022-09-23T04:53:04.674Z,4.57
2022-09-23T04:54:04.667Z,4.53
2022-09-23T04:55:09.135Z,4.53
2022-09-23T04:56:05.650Z,4.71
2022-09-23T04:57:04.626Z,4.59
2022-09-23T04:58:04.645Z,4.67
2022-09-23T04:59:04.647Z,4.64
2022-09-23T05:00:04.628Z,4.51
2022-09-23T05:01:05.479Z,4.53
2022-09-23T05:02:05.123Z,4.61
2022-09-23T05:03:04.597Z,4.53
2022-09-23T05:04:04.577Z,4.57
2022-09-23T05:05:04.588Z,4.60
2022-09-23T05:06:04.568Z,4.63
2022-09-23T05:07:04.551Z,4.63
2022-09-23T05:08:04.569Z,4.57
2022-09-23T05:09:04.562Z,4.61
2022-09-23T05:10:05.224Z,4.57
2022-09-23T05:11:04.532Z,4.60
2022-09-23T05:12:05.531Z,4.60
2022-09-23T05:13:04.520Z,4.72
2022-09-23T05:14:04.517Z,4.72
2022-09-23T05:15:04.529Z,4.79
2022-09-23T05:16:04.604Z,4.71
2022-09-23T05:17:05.835Z,4.67
2022-09-23T05:18:04.505Z,4.78
2022-09-23T05:19:04.476Z,4.74
2022-09-23T05:20:04.482Z,4.83
2022-09-23T05:21:04.473Z,4.89
2022-09-23T05:22:04.475Z,4.88
2022-09-23T05:23:04.508Z,4.94
2022-09-23T05:24:04.600Z,4.97
2022-09-23T05:25:04.469Z,4.98
2022-09-23T05:26:04.430Z,4.94
2022-09-23T05:27:04.430Z,5.07
2022-09-23T05:28:04.418Z,5.06
2022-09-23T05:29:04.458Z,5.14
2022-09-23T05:30:04.439Z,5.12
2022-09-23T05:31:04.502Z,5.21
2022-09-23T05:32:04.526Z,5.16
2022-09-23T05:33:04.394Z,5.25
2022-09-23T05:34:04.380Z,5.29
2022-09-23T05:35:04.386Z,5.33
2022-09-23T05:36:04.369Z,5.24
2022-09-23T05:37:04.363Z,5.24
2022-09-23T05:38:04.373Z,5.19
2022-09-23T05:39:04.354Z,5.14
2022-09-23T05:40:04.434Z,5.27
2022-09-23T05:41:04.359Z,5.27
2022-09-23T05:42:04.378Z,5.33
2022-09-23T05:43:04.327Z,5.36
2022-09-23T05:44:04.334Z,5.32
2022-09-23T05:45:04.317Z,5.41
2022-09-23T05:46:08.006Z,5.54
2022-09-23T05:47:04.352Z,5.43
2022-09-23T05:48:04.314Z,5.58
2022-09-23T05:49:04.536Z,5.69
2022-09-23T05:50:04.914Z,5.75
2022-09-23T05:51:04.328Z,5.67
2022-09-23T05:52:04.275Z,5.82
2022-09-23T05:53:04.264Z,5.87
2022-09-23T05:54:04.541Z,5.88
2022-09-23T05:55:04.329Z,5.88
2022-09-23T05:57:05.084Z,5.87
2022-09-23T05:58:04.633Z,5.87
2022-09-23T05:59:04.224Z,5.95
2022-09-23T06:00:04.206Z,5.94
2022-09-23T06:01:04.209Z,6.00
2022-09-23T06:02:04.289Z,6.05
2022-09-23T06:03:04.238Z,6.11
2022-09-23T06:04:04.203Z,6.09
2022-09-23T06:05:04.184Z,6.16
2022-09-23T06:06:04.189Z,6.24
2022-09-23T06:07:04.194Z,6.40
2022-09-23T06:08:04.172Z,6.52
2022-09-23T06:09:04.869Z,6.60
2022-09-23T06:10:04.168Z,6.75
2022-09-23T06:11:04.142Z,6.89
2022-09-23T06:12:04.134Z,6.91
2022-09-23T06:13:04.168Z,7.01
2022-09-23T06:14:04.294Z,7.19
2022-09-23T06:15:04.139Z,7.49
2022-09-23T06:16:05.390Z,7.80
2022-09-23T06:17:04.095Z,8.19
2022-09-23T06:18:04.144Z,8.50
2022-09-23T06:19:05.601Z,8.88
2022-09-23T06:20:04.082Z,9.16
2022-09-23T06:21:04.074Z,9.52
2022-09-23T06:22:04.087Z,9.78
2022-09-23T06:23:07.265Z,10.20
2022-09-23T06:24:05.257Z,10.43
2022-09-23T06:25:04.049Z,10.61
2022-09-23T06:26:04.149Z,10.65
2022-09-23T06:27:04.049Z,10.38
2022-09-23T06:28:04.066Z,10.45
2022-09-23T06:29:04.039Z,10.54
2022-09-23T06:30:04.020Z,10.70
2022-09-23T06:31:04.055Z,10.90
2022-09-23T06:32:04.422Z,10.82
2022-09-23T06:33:03.998Z,10.76
2022-09-23T06:34:11.817Z,10.73
2022-09-23T06:35:05.013Z,10.35
2022-09-23T06:36:03.971Z,10.16
2022-09-23T06:37:16.271Z,10.18
2022-09-23T06:38:04.952Z,10.30
2022-09-23T06:39:03.945Z,10.48
2022-09-23T06:40:04.038Z,10.57
2022-09-23T06:41:03.934Z,10.62
2022-09-23T06:42:03.920Z,10.62
2022-09-23T06:43:03.976Z,10.65
2022-09-23T06:44:03.915Z,10.62
2022-09-23T06:45:03.947Z,10.55
2022-09-23T06:46:04.112Z,10.64
2022-09-23T06:47:03.917Z,10.64
2022-09-23T06:48:03.903Z,10.75
2022-09-23T06:49:03.919Z,10.91
2022-09-23T06:50:03.878Z,10.79
2022-09-23T06:51:03.858Z,10.86
2022-09-23T06:52:03.860Z,11.00
2022-09-23T06:53:03.853Z,11.15
2022-09-23T06:54:03.842Z,11.20
2022-09-23T06:55:03.851Z,11.43
2022-09-23T06:56:03.822Z,11.74
2022-09-23T06:57:03.817Z,11.91
2022-09-23T06:58:03.816Z,12.15
2022-09-23T06:59:03.830Z,12.21
2022-09-23T07:00:03.797Z,12.62
2022-09-23T07:01:03.834Z,12.69
2022-09-23T07:02:03.884Z,12.95
2022-09-23T07:03:03.864Z,13.04
2022-09-23T07:04:03.777Z,13.11
2022-09-23T07:05:03.821Z,13.09
2022-09-23T07:06:03.761Z,13.06
2022-09-23T07:07:03.815Z,12.87
2022-09-23T07:08:03.746Z,12.83
2022-09-23T07:09:03.733Z,12.76
2022-09-23T07:10:03.732Z,12.63
2022-09-23T07:11:03.739Z,12.58
2022-09-23T07:12:03.730Z,12.44
2022-09-23T07:13:03.730Z,12.33
2022-09-23T07:14:03.701Z,12.38
2022-09-23T07:15:03.701Z,12.15
2022-09-23T07:16:04.178Z,12.13
2022-09-23T07:17:03.706Z,12.04
2022-09-23T07:18:03.690Z,11.79
2022-09-23T07:19:03.673Z,11.87
2022-09-23T07:20:03.683Z,11.84
2022-09-23T07:21:03.661Z,11.87
2022-09-23T07:22:03.709Z,11.87
2022-09-23T07:23:03.644Z,11.95
2022-09-23T07:24:03.642Z,12.14
2022-09-23T07:25:03.632Z,12.40
2022-09-23T07:26:03.644Z,12.66
2022-09-23T07:27:03.614Z,12.76
2022-09-23T07:28:03.640Z,12.83
2022-09-23T07:29:03.605Z,12.99
2022-09-23T07:30:03.658Z,13.29
2022-09-23T07:31:03.627Z,13.49
2022-09-23T07:32:13.319Z,13.73
2022-09-23T07:33:14.645Z,14.21
2022-09-23T07:34:04.659Z,14.51
2022-09-23T07:35:03.579Z,14.74
2022-09-23T07:36:03.549Z,15.10
2022-09-23T07:37:03.704Z,15.25
2022-09-23T07:38:03.544Z,15.47
2022-09-23T07:39:03.595Z,15.32
2022-09-23T07:40:03.648Z,15.27
2022-09-23T07:41:03.515Z,15.45
2022-09-23T07:42:03.562Z,15.52
2022-09-23T07:43:03.506Z,15.45
2022-09-23T07:44:03.506Z,15.52
2022-09-23T07:45:03.478Z,15.66
2022-09-23T07:46:03.622Z,15.73
2022-09-23T07:47:03.501Z,15.95
2022-09-23T07:48:03.459Z,15.93
2022-09-23T07:49:03.475Z,15.76
2022-09-23T07:50:03.456Z,15.70
2022-09-23T07:51:03.433Z,15.30
2022-09-23T07:52:03.765Z,14.97
2022-09-23T07:53:03.435Z,14.89
2022-09-23T07:54:03.428Z,14.85
2022-09-23T07:55:03.420Z,14.99
2022-09-23T07:56:03.412Z,15.12
2022-09-23T07:57:03.414Z,15.20
2022-09-23T07:58:03.402Z,14.92
2022-09-23T07:59:03.494Z,14.87
2022-09-23T08:00:03.384Z,15.08
2022-09-23T08:01:03.380Z,15.08
2022-09-23T08:02:03.420Z,15.20
2022-09-23T08:03:03.441Z,15.32
2022-09-23T08:04:03.373Z,15.22
2022-09-23T08:05:03.486Z,15.01
2022-09-23T08:06:03.340Z,14.70
2022-09-23T08:07:03.395Z,14.48
2022-09-23T08:08:03.317Z,14.61
2022-09-23T08:09:03.393Z,14.69
2022-09-23T08:10:03.327Z,14.69
2022-09-23T08:11:10.360Z,14.82
2022-09-23T08:12:03.298Z,14.96
2022-09-23T08:13:03.336Z,15.38
2022-09-23T08:14:03.300Z,16.02
2022-09-23T08:15:03.277Z,16.40
2022-09-23T08:16:03.351Z,16.46
2022-09-23T08:17:03.264Z,16.72
2022-09-23T08:18:03.265Z,16.70
2022-09-23T08:20:03.247Z,17.39
2022-09-23T08:21:03.268Z,17.97
2022-09-23T08:22:03.244Z,18.48
2022-09-23T08:23:03.464Z,19.00
2022-09-23T08:24:03.353Z,18.82
2022-09-23T08:25:03.711Z,18.57
2022-09-23T08:26:03.206Z,18.38
2022-09-23T08:27:03.193Z,18.39
2022-09-23T08:28:03.240Z,18.51
2022-09-23T08:29:03.184Z,18.66
2022-09-23T08:30:03.172Z,18.48
2022-09-23T08:31:03.315Z,18.49
2022-09-23T08:32:03.162Z,18.54
2022-09-23T08:33:03.163Z,18.88
2022-09-23T08:34:03.308Z,19.08
2022-09-23T08:35:03.176Z,19.35
2022-09-23T08:36:03.575Z,19.34
2022-09-23T08:37:03.192Z,19.50
2022-09-23T08:38:03.180Z,19.54
2022-09-23T08:39:03.115Z,19.60
2022-09-23T08:40:03.110Z,19.53
2022-09-23T08:41:03.132Z,19.67
2022-09-23T08:42:03.087Z,19.68
2022-09-23T08:43:03.091Z,19.53
2022-09-23T08:44:03.215Z,19.75
2022-09-23T08:45:03.081Z,19.57
2022-09-23T08:46:03.117Z,19.78
2022-09-23T08:47:03.094Z,19.72
2022-09-23T08:48:03.054Z,19.64
2022-09-23T08:49:03.060Z,19.75
2022-09-23T08:50:03.087Z,19.49
2022-09-23T08:51:03.033Z,19.56
2022-09-23T08:52:03.057Z,19.64
2022-09-23T08:53:03.048Z,19.62
2022-09-23T08:54:03.102Z,19.16
2022-09-23T08:55:03.014Z,18.75
2022-09-23T08:56:03.000Z,18.61
2022-09-23T08:57:03.019Z,18.88
2022-09-23T08:58:26.759Z,18.98
2022-09-23T08:59:03.985Z,19.12
2022-09-23T09:00:02.985Z,19.57
2022-09-23T09:01:03.013Z,19.92
2022-09-23T09:02:02.970Z,20.19
2022-09-23T09:03:02.991Z,20.15
2022-09-23T09:04:23.954Z,20.05
2022-09-23T09:05:02.943Z,20.32
2022-09-23T09:06:02.960Z,20.34
2022-09-23T09:07:24.676Z,20.44
2022-09-23T09:08:04.005Z,20.22
2022-09-23T09:09:03.018Z,20.14
2022-09-23T09:10:02.914Z,20.32
2022-09-23T09:11:02.903Z,20.33
2022-09-23T09:12:03.329Z,20.37
2022-09-23T09:13:02.890Z,20.25
2022-09-23T09:14:02.910Z,20.00
2022-09-23T09:15:02.886Z,20.19
2022-09-23T09:16:02.926Z,20.41
2022-09-23T09:17:02.941Z,20.61
2022-09-23T09:18:02.887Z,20.83
2022-09-23T09:19:02.911Z,20.98
2022-09-23T09:20:02.859Z,20.79
2022-09-23T09:21:03.175Z,20.68
2022-09-23T09:22:02.824Z,20.65
2022-09-23T09:23:02.825Z,20.71
2022-09-23T09:24:02.938Z,20.75
2022-09-23T09:25:02.945Z,20.89
2022-09-23T09:26:02.805Z,21.22
2022-09-23T09:27:02.795Z,21.25
2022-09-23T09:28:02.837Z,21.43
2022-09-23T09:29:17.159Z,21.50
2022-09-23T09:30:03.780Z,21.85
2022-09-23T09:31:02.933Z,22.21
2022-09-23T09:32:02.763Z,22.36
2022-09-23T09:33:02.771Z,22.71
2022-09-23T09:34:02.788Z,22.99
2022-09-23T09:35:02.751Z,23.15
2022-09-23T09:36:02.727Z,23.18
2022-09-23T09:37:06.845Z,22.96
2022-09-23T09:38:02.810Z,22.76
2022-09-23T09:39:03.052Z,22.66
2022-09-23T09:40:02.710Z,22.62
2022-09-23T09:41:02.920Z,22.78
2022-09-23T09:42:02.687Z,23.04
2022-09-23T09:43:02.692Z,23.56
2022-09-23T09:44:02.740Z,24.07
2022-09-23T09:45:02.676Z,24.55
2022-09-23T09:46:02.660Z,25.00
2022-09-23T09:47:03.622Z,25.19
2022-09-23T09:48:02.697Z,25.11
2022-09-23T09:49:02.761Z,25.46
2022-09-23T09:50:02.628Z,25.78
2022-09-23T09:51:02.626Z,26.10
2022-09-23T09:52:02.777Z,26.04
2022-09-23T09:53:02.585Z,26.00
2022-09-23T09:54:02.559Z,25.75
2022-09-23T09:55:02.596Z,25.41
2022-09-23T09:56:05.310Z,24.74
2022-09-23T09:57:02.562Z,24.41
2022-09-23T09:58:02.607Z,24.23
2022-09-23T09:59:02.572Z,24.25
2022-09-23T10:00:02.797Z,24.47
2022-09-23T10:01:02.550Z,25.14
2022-09-23T10:02:02.484Z,25.89
2022-09-23T10:03:02.478Z,26.00
2022-09-23T10:04:02.464Z,26.65
2022-09-23T10:05:02.470Z,26.49
2022-09-23T10:06:03.099Z,26.28
2022-09-23T10:07:02.440Z,26.48
2022-09-23T10:08:02.449Z,27.01
2022-09-23T10:09:02.479Z,26.58
2022-09-23T10:10:15.915Z,26.48
2022-09-23T10:11:04.799Z,25.74
2022-09-23T10:12:02.415Z,25.36
2022-09-23T10:13:02.430Z,24.99
2022-09-23T10:14:02.396Z,24.93
2022-09-23T10:15:02.420Z,25.26
2022-09-23T10:16:02.378Z,25.90
2022-09-23T10:17:03.129Z,26.34
2022-09-23T10:18:02.382Z,26.61
2022-09-23T10:19:02.412Z,26.61
2022-09-23T10:20:02.365Z,26.08
2022-09-23T10:21:02.354Z,25.75
2022-09-23T10:22:02.343Z,25.33
2022-09-23T10:23:02.372Z,25.16
2022-09-23T10:24:02.325Z,25.28
2022-09-23T10:25:02.330Z,25.77
2022-09-23T10:26:02.320Z,26.03
2022-09-23T10:27:02.307Z,25.52
2022-09-23T10:28:06.080Z,25.26
2022-09-23T10:29:04.416Z,25.43
2022-09-23T10:30:02.288Z,25.51
2022-09-23T10:31:02.363Z,25.45
2022-09-23T10:32:02.275Z,25.18
2022-09-23T10:33:02.276Z,24.85
2022-09-23T10:34:02.267Z,24.78
2022-09-23T10:35:02.901Z,24.40
2022-09-23T10:36:02.276Z,24.56
2022-09-23T10:37:02.237Z,24.37
2022-09-23T10:38:02.246Z,23.84
2022-09-23T10:39:02.364Z,23.69
2022-09-23T10:40:02.222Z,23.34
2022-09-23T10:41:03.070Z,23.39
2022-09-23T10:42:02.218Z,23.51
2022-09-23T10:43:02.205Z,23.64
2022-09-23T10:44:02.195Z,23.46
2022-09-23T10:45:02.258Z,23.52
2022-09-23T10:46:02.247Z,23.54
2022-09-23T10:47:02.605Z,23.66
2022-09-23T10:48:02.167Z,23.79
2022-09-23T10:49:02.158Z,23.61
2022-09-23T10:50:02.148Z,23.46
2022-09-23T10:51:02.149Z,23.46
2022-09-23T10:52:02.403Z,23.33
2022-09-23T10:53:02.141Z,23.13
2022-09-23T10:54:02.133Z,23.17
2022-09-23T10:55:02.122Z,23.37
2022-09-23T10:56:02.109Z,23.55
2022-09-23T10:57:02.136Z,23.25
2022-09-23T10:58:02.132Z,23.34
2022-09-23T10:59:02.113Z,23.66
2022-09-23T11:00:02.089Z,24.23
2022-09-23T11:01:02.143Z,24.47
2022-09-23T11:02:02.121Z,24.82
2022-09-23T11:03:02.957Z,24.91
2022-09-23T11:04:02.181Z,24.86
2022-09-23T11:05:02.110Z,24.81
2022-09-23T11:06:02.848Z,24.22
2022-09-23T11:07:02.027Z,24.25
2022-09-23T11:08:02.028Z,24.08
2022-09-23T11:09:02.013Z,23.78
2022-09-23T11:10:02.030Z,23.85
2022-09-23T11:11:02.011Z,24.40
2022-09-23T11:12:02.013Z,24.85
2022-09-23T11:13:01.986Z,24.94
2022-09-23T11:14:02.019Z,25.16
2022-09-23T11:15:02.013Z,25.28
2022-09-23T11:16:02.091Z,25.19
2022-09-23T11:17:02.043Z,25.51
2022-09-23T11:18:02.959Z,25.48
2022-09-23T11:19:01.973Z,25.51
2022-09-23T11:20:01.941Z,25.46
2022-09-23T11:21:02.607Z,25.52
2022-09-23T11:22:02.404Z,25.49
2022-09-23T11:23:01.923Z,25.75
2022-09-23T11:24:02.018Z,25.92
2022-09-23T11:25:01.912Z,25.64
2022-09-23T11:26:01.901Z,26.04
2022-09-23T11:27:01.909Z,25.78
2022-09-23T11:28:01.890Z,25.46
2022-09-23T11:29:02.157Z,25.23
2022-09-23T11:30:01.870Z,25.48
2022-09-23T11:31:02.544Z,25.23
2022-09-23T11:32:01.871Z,24.90
2022-09-23T11:34:01.858Z,25.90
2022-09-23T11:35:01.850Z,26.49
2022-09-23T11:36:01.839Z,26.28
2022-09-23T11:37:01.838Z,26.65
2022-09-23T11:38:01.864Z,26.79
2022-09-23T11:39:02.260Z,26.78
2022-09-23T11:40:01.809Z,27.13
2022-09-23T11:41:01.873Z,27.34
2022-09-23T11:42:01.801Z,27.05
2022-09-23T11:43:01.826Z,26.68
2022-09-23T11:44:01.837Z,26.12
2022-09-23T11:45:02.014Z,26.00
2022-09-23T11:46:01.829Z,25.64
2022-09-23T11:47:01.775Z,25.67
2022-09-23T11:48:02.030Z,25.21
2022-09-23T11:49:01.779Z,25.36
2022-09-23T11:50:01.758Z,25.51
2022-09-23T11:51:01.751Z,25.52
2022-09-23T11:52:01.757Z,25.78
2022-09-23T11:53:01.727Z,26.01
2022-09-23T11:54:02.530Z,25.95
2022-09-23T11:55:04.758Z,26.00
2022-09-23T11:56:02.718Z,25.81
2022-09-23T11:57:01.701Z,25.73
2022-09-23T11:58:01.810Z,25.93
2022-09-23T11:59:01.763Z,26.23
2022-09-23T12:00:01.727Z,25.96
2022-09-23T12:01:01.739Z,25.95
2022-09-23T12:02:13.073Z,25.01
2022-09-23T12:03:05.995Z,24.90
2022-09-23T12:04:13.498Z,24.79
2022-09-23T12:05:03.807Z,24.93
2022-09-23T12:06:01.820Z,24.75
2022-09-23T12:07:01.667Z,25.12
2022-09-23T12:08:01.632Z,25.52
2022-09-23T12:09:01.631Z,26.04
2022-09-23T12:10:01.631Z,26.75
2022-09-23T12:11:01.779Z,27.26
2022-09-23T12:12:01.603Z,26.70
2022-09-23T12:13:01.592Z,26.67
2022-09-23T12:14:01.590Z,26.79
2022-09-23T12:15:01.613Z,26.65
2022-09-23T12:16:01.573Z,26.33
2022-09-23T12:17:01.685Z,26.33
2022-09-23T12:18:01.559Z,26.64
2022-09-23T12:19:01.549Z,26.49
2022-09-23T12:20:01.566Z,26.08
2022-09-23T12:21:02.000Z,25.55
2022-09-23T12:22:01.528Z,25.08
2022-09-23T12:23:01.530Z,24.84
2022-09-23T12:24:01.513Z,24.81
2022-09-23T12:25:01.510Z,24.96
2022-09-23T12:26:01.521Z,24.58
2022-09-23T12:27:01.518Z,24.01
2022-09-23T12:28:01.492Z,23.67
2022-09-23T12:29:01.483Z,23.46
2022-09-23T12:30:01.474Z,23.11
2022-09-23T12:31:01.576Z,22.96
2022-09-23T12:32:01.472Z,23.18
2022-09-23T12:33:01.538Z,23.14
2022-09-23T12:34:01.595Z,22.83
2022-09-23T12:35:01.437Z,22.59
2022-09-23T12:36:01.504Z,22.73
2022-09-23T12:37:01.558Z,22.73
2022-09-23T12:38:01.416Z,22.55
2022-09-23T12:39:01.474Z,22.37
2022-09-23T12:40:01.413Z,22.06
2022-09-23T12:41:01.389Z,22.18
2022-09-23T12:42:01.391Z,22.46
2022-09-23T12:43:02.258Z,22.70
2022-09-23T12:44:01.374Z,22.55
2022-09-23T12:45:01.382Z,22.49
2022-09-23T12:46:02.700Z,22.28
2022-09-23T12:47:01.513Z,22.28
2022-09-23T12:48:01.349Z,22.34
2022-09-23T12:49:01.366Z,22.61
2022-09-23T12:50:01.350Z,22.81
2022-09-23T12:51:01.327Z,22.89
2022-09-23T12:52:01.315Z,22.96
2022-09-23T12:53:01.352Z,22.92
2022-09-23T12:54:01.412Z,22.77
2022-09-23T12:55:01.342Z,22.74
2022-09-23T12:56:01.292Z,22.55
2022-09-23T12:57:01.312Z,22.67
2022-09-23T12:58:01.290Z,22.98
2022-09-23T12:59:01.282Z,22.96
2022-09-23T13:00:01.257Z,23.15
2022-09-23T13:01:01.442Z,23.31
2022-09-23T13:02:01.449Z,22.95
2022-09-23T13:03:01.628Z,22.73
2022-09-23T13:04:01.236Z,22.25
2022-09-23T13:05:01.221Z,21.77
2022-09-23T13:06:01.221Z,21.55
2022-09-23T13:07:01.234Z,21.44
2022-09-23T13:08:01.210Z,21.43